createdAt,value
2022-09-23T00:01:01.146Z,4.48
2022-09-23T00:03:29.532Z,4.47
2022-09-23T00:05:59.648Z,4.56
2022-09-23T00:08:26.259Z,4.58
2022-09-23T00:10:54.314Z,4.54
2022-09-23T00:13:20.773Z,4.50
2022-09-23T00:15:47.277Z,4.40
2022-09-23T00:18:13.752Z,4.41
2022-09-23T00:20:40.236Z,4.39
2022-09-23T00:23:06.718Z,4.31
2022-09-23T00:25:33.779Z,4.13
2022-09-23T00:28:02.014Z,4.32
2022-09-23T00:30:29.076Z,4.35
2022-09-23T00:32:55.588Z,4.31
2022-09-23T00:35:22.301Z,4.15
2022-09-23T00:37:48.838Z,4.06
2022-09-23T00:40:15.491Z,4.16
2022-09-23T00:42:46.659Z,4.25
2022-09-23T00:45:15.224Z,4.21
2022-09-23T00:47:45.790Z,4.17
2022-09-23T00:50:18.393Z,4.11
2022-09-23T00:52:45.429Z,4.13
2022-09-23T00:55:16.232Z,4.08
2022-09-23T00:57:45.463Z,3.97
2022-09-23T01:00:14.211Z,3.99
2022-09-23T01:02:40.775Z,4.09
2022-09-23T01:05:08.851Z,4.18
2022-09-23T01:07:35.333Z,4.11
2022-09-23T01:10:02.547Z,4.04
2022-09-23T01:12:54.044Z,3.86
2022-09-23T01:15:26.541Z,3.85
2022-09-23T01:18:03.231Z,3.83
2022-09-23T01:20:47.232Z,3.82
2022-09-23T01:23:31.216Z,3.86
2022-09-23T01:26:13.593Z,3.88
2022-09-23T01:28:59.949Z,3.86
2022-09-23T01:31:34.734Z,3.85
2022-09-23T01:34:09.714Z,3.78
2022-09-23T01:36:42.542Z,3.78
2022-09-23T01:39:14.710Z,3.66
2022-09-23T01:41:50.269Z,3.66
2022-09-23T01:44:21.659Z,3.66
2022-09-23T01:46:53.798Z,3.62
2022-09-23T01:49:25.230Z,3.69
2022-09-23T01:51:57.994Z,3.72
2022-09-23T01:54:29.591Z,3.73
2022-09-23T01:57:01.680Z,3.66
2022-09-23T01:59:34.722Z,3.62
2022-09-23T02:02:06.200Z,3.50
2022-09-23T02:04:37.852Z,3.41
2022-09-23T02:07:10.866Z,3.62
2022-09-23T02:09:42.589Z,3.66
2022-09-23T02:12:13.909Z,3.49
2022-09-23T02:14:45.808Z,3.49
2022-09-23T02:17:15.669Z,3.44
2022-09-23T02:19:46.484Z,3.46
2022-09-23T02:22:18.228Z,3.29
2022-09-23T02:24:45.038Z,3.29
2022-09-23T02:27:19.995Z,3.32
2022-09-23T02:29:54.032Z,3.37
2022-09-23T02:32:28.711Z,3.47
2022-09-23T02:35:01.394Z,3.15
2022-09-23T02:37:34.284Z,3.14
2022-09-23T02:40:11.940Z,3.10
2022-09-23T02:42:47.071Z,2.89
2022-09-23T02:45:13.830Z,2.95
2022-09-23T02:47:46.620Z,3.14
2022-09-23T02:50:13.251Z,3.11
2022-09-23T02:52:39.792Z,3.16
2022-09-23T02:55:08.949Z,3.04
2022-09-23T02:57:35.542Z,3.15
2022-09-23T03:00:02.339Z,3.27
2022-09-23T03:02:52.346Z,3.11
2022-09-23T03:05:24.532Z,3.12
2022-09-23T03:08:05.539Z,2.99
2022-09-23T03:10:40.488Z,2.94
2022-09-23T03:13:16.787Z,2.96
2022-09-23T03:15:50.598Z,2.87
2022-09-23T03:18:23.502Z,2.82
2022-09-23T03:20:53.403Z,2.68
2022-09-23T03:23:26.250Z,2.75
2022-09-23T03:25:55.774Z,2.73
2022-09-23T03:28:24.671Z,2.63
2022-09-23T03:30:52.890Z,2.54
2022-09-23T03:33:28.537Z,2.67
2022-09-23T03:35:59.617Z,2.52
2022-09-23T03:38:31.174Z,2.70
2022-09-23T03:40:59.486Z,2.73
2022-09-23T03:43:26.107Z,2.78
2022-09-23T03:45:54.097Z,2.74
2022-09-23T03:48:22.010Z,2.79
2022-09-23T03:50:48.497Z,2.73
2022-09-23T03:53:15.058Z,2.42
2022-09-23T03:55:41.561Z,2.31
2022-09-23T03:58:08.043Z,2.39
2022-09-23T04:00:34.583Z,2.59
2022-09-23T04:03:01.153Z,2.41
2022-09-23T04:05:29.009Z,2.57
2022-09-23T04:07:55.485Z,2.82
2022-09-23T04:10:21.997Z,2.86
2022-09-23T04:12:48.493Z,2.83
2022-09-23T04:15:15.074Z,2.93
2022-09-23T04:17:41.544Z,2.76
2022-09-23T04:20:08.925Z,2.41
2022-09-23T04:22:36.743Z,2.28
2022-09-23T04:25:03.498Z,2.30
2022-09-23T04:27:33.108Z,2.11
2022-09-23T04:30:02.077Z,2.01
2022-09-23T04:32:28.549Z,1.85
2022-09-23T04:34:55.028Z,1.88
2022-09-23T04:37:21.500Z,2.16
2022-09-23T04:39:49.327Z,2.55
2022-09-23T04:42:15.819Z,2.74
2022-09-23T04:44:42.369Z,2.57
2022-09-23T04:47:08.902Z,2.04
2022-09-23T04:49:35.432Z,1.97
2022-09-23T04:52:02.158Z,2.09
2022-09-23T04:54:28.820Z,2.37
2022-09-23T04:56:56.841Z,2.45
2022-09-23T04:59:23.350Z,2.30
2022-09-23T05:01:49.863Z,2.10
2022-09-23T05:04:16.362Z,2.35
2022-09-23T05:06:42.854Z,2.66
2022-09-23T05:09:14.726Z,2.79
2022-09-23T05:11:41.033Z,2.74
2022-09-23T05:14:09.029Z,2.69
2022-09-23T05:16:35.760Z,2.57
2022-09-23T05:19:02.278Z,2.32
2022-09-23T05:21:28.919Z,2.32
2022-09-23T05:23:56.618Z,2.46
2022-09-23T05:26:25.082Z,2.49
2022-09-23T05:28:52.381Z,2.67
2022-09-23T05:31:21.889Z,2.51
2022-09-23T05:33:50.760Z,2.73
2022-09-23T05:36:17.681Z,2.85
2022-09-23T05:38:44.236Z,2.92
2022-09-23T05:41:14.230Z,2.63
2022-09-23T05:43:40.964Z,2.78
2022-09-23T05:46:10.820Z,2.91
2022-09-23T05:48:39.962Z,2.99
2022-09-23T05:51:08.741Z,2.94
2022-09-23T05:53:35.239Z,3.04
2022-09-23T05:56:01.948Z,3.00
2022-09-23T05:58:28.498Z,2.92
2022-09-23T06:00:54.968Z,3.02
2022-09-23T06:03:21.496Z,3.15
2022-09-23T06:05:52.717Z,3.01
2022-09-23T06:08:19.205Z,3.15
2022-09-23T06:10:47.879Z,3.11
2022-09-23T06:13:16.223Z,3.19
2022-09-23T06:15:42.742Z,3.32
2022-09-23T06:18:09.296Z,3.36
2022-09-23T06:20:35.792Z,3.58
2022-09-23T06:23:08.338Z,3.79
2022-09-23T06:25:37.777Z,3.89
2022-09-23T06:28:04.476Z,3.70
2022-09-23T06:30:30.963Z,3.69
2022-09-23T06:32:57.954Z,4.00
2022-09-23T06:35:27.713Z,3.98
2022-09-23T06:37:54.609Z,3.92
2022-09-23T06:40:22.817Z,4.07
2022-09-23T06:42:57.251Z,3.87
2022-09-23T06:45:23.888Z,3.64
2022-09-23T06:47:53.664Z,3.60
2022-09-23T06:50:20.142Z,3.85
2022-09-23T06:52:50.826Z,3.67
2022-09-23T06:55:17.331Z,3.79
2022-09-23T06:57:45.128Z,3.69
2022-09-23T07:00:12.954Z,4.20
2022-09-23T07:02:40.471Z,4.55
2022-09-23T07:05:07.729Z,4.90
2022-09-23T07:07:34.210Z,5.15
2022-09-23T07:10:00.667Z,5.18
2022-09-23T07:12:27.111Z,5.15
2022-09-23T07:14:54.924Z,5.48
2022-09-23T07:17:21.384Z,5.84
2022-09-23T07:19:47.844Z,6.06
2022-09-23T07:22:14.334Z,6.13
2022-09-23T07:24:40.804Z,6.37
2022-09-23T07:27:07.275Z,5.87
2022-09-23T07:29:44.371Z,6.40
2022-09-23T07:32:14.623Z,6.73
2022-09-23T07:34:41.250Z,6.38
2022-09-23T07:37:07.787Z,6.49
2022-09-23T07:39:34.726Z,7.05
2022-09-23T07:42:01.181Z,7.41
2022-09-23T07:44:27.653Z,7.70
2022-09-23T07:46:54.114Z,7.93
2022-09-23T07:49:21.940Z,8.07
2022-09-23T07:51:48.420Z,8.41
2022-09-23T07:54:16.386Z,7.79
2022-09-23T07:56:43.828Z,7.19
2022-09-23T07:59:13.242Z,7.72
2022-09-23T08:01:42.210Z,7.94
2022-09-23T08:04:13.052Z,7.81
2022-09-23T08:06:42.278Z,8.13
2022-09-23T08:09:09.051Z,8.11
2022-09-23T08:11:35.749Z,8.13
2022-09-23T08:14:02.297Z,8.53
2022-09-23T08:16:28.871Z,8.59
2022-09-23T08:18:55.388Z,8.75
2022-09-23T08:21:22.874Z,9.30
2022-09-23T08:23:50.705Z,9.78
2022-09-23T08:26:21.512Z,10.09
2022-09-23T08:28:49.297Z,10.22
2022-09-23T08:31:15.858Z,10.26
2022-09-23T08:33:42.400Z,10.24
2022-09-23T08:36:08.876Z,10.23
2022-09-23T08:38:35.366Z,9.91
2022-09-23T08:41:12.544Z,9.94
2022-09-23T08:43:39.039Z,10.17
2022-09-23T08:46:10.167Z,9.93
2022-09-23T08:48:42.253Z,9.99
2022-09-23T08:51:13.852Z,10.39
2022-09-23T08:53:40.396Z,10.75
2022-09-23T08:56:14.184Z,11.00
2022-09-23T08:58:59.740Z,10.97
2022-09-23T09:01:31.964Z,10.91
2022-09-23T09:04:00.698Z,10.92
2022-09-23T09:06:32.500Z,11.38
2022-09-23T09:09:01.242Z,11.18
2022-09-23T09:11:35.953Z,11.54
2022-09-23T09:14:17.561Z,11.89
2022-09-23T09:17:05.937Z,11.93
2022-09-23T09:19:46.002Z,12.04
2022-09-23T09:22:19.186Z,12.34
2022-09-23T09:24:48.696Z,12.50
2022-09-23T09:27:16.527Z,12.41
2022-09-23T09:29:46.044Z,12.43
2022-09-23T09:32:22.335Z,12.56
2022-09-23T09:34:53.567Z,12.56
2022-09-23T09:37:27.498Z,12.62
2022-09-23T09:39:54.000Z,12.70
2022-09-23T09:42:27.116Z,12.67
2022-09-23T09:44:58.473Z,12.77
2022-09-23T09:47:35.708Z,12.73
2022-09-23T09:50:07.462Z,12.95
2022-09-23T09:52:34.522Z,13.06
2022-09-23T09:55:22.969Z,13.25
2022-09-23T09:57:55.689Z,13.36
2022-09-23T10:00:38.620Z,13.41
2022-09-23T10:03:25.382Z,13.49
2022-09-23T10:05:53.410Z,13.56
2022-09-23T10:08:25.923Z,13.62
2022-09-23T10:10:59.801Z,13.56
2022-09-23T10:13:28.360Z,13.63
2022-09-23T10:15:56.095Z,13.66
2022-09-23T10:18:28.902Z,13.73
2022-09-23T10:21:02.330Z,13.67
2022-09-23T10:23:30.122Z,13.59
2022-09-23T10:25:58.373Z,13.70
2022-09-23T10:28:49.591Z,13.79
2022-09-23T10:31:23.463Z,13.81
2022-09-23T10:33:52.983Z,13.84
2022-09-23T10:36:19.464Z,13.92
2022-09-23T10:38:49.208Z,13.79
2022-09-23T10:41:27.298Z,13.87
2022-09-23T10:44:06.795Z,13.82
2022-09-23T10:46:37.177Z,13.89
2022-09-23T10:49:40.572Z,13.93
2022-09-23T10:52:29.264Z,14.08
2022-09-23T10:55:07.301Z,14.17
2022-09-23T10:57:47.008Z,14.20
2022-09-23T11:00:28.826Z,14.35
2022-09-23T11:03:33.576Z,14.44
2022-09-23T11:06:12.984Z,14.51
2022-09-23T11:08:54.303Z,14.65
2022-09-23T11:11:31.719Z,14.60
2022-09-23T11:14:15.769Z,14.70
2022-09-23T11:16:56.959Z,14.81
2022-09-23T11:19:45.697Z,14.78
2022-09-23T11:22:27.110Z,14.72
2022-09-23T11:25:13.190Z,14.89
2022-09-23T11:27:54.924Z,14.91
2022-09-23T11:30:21.551Z,14.93
2022-09-23T11:33:16.073Z,15.00
2022-09-23T11:35:48.630Z,15.02
2022-09-23T11:38:20.016Z,15.15
2022-09-23T11:40:49.457Z,14.96
2022-09-23T11:43:21.261Z,15.09
2022-09-23T11:45:53.397Z,15.13
2022-09-23T11:48:28.919Z,15.20
2022-09-23T11:50:59.626Z,15.22
2022-09-23T11:53:37.792Z,15.29
2022-09-23T11:56:10.479Z,15.35
2022-09-23T11:58:48.420Z,15.45
2022-09-23T12:01:35.155Z,15.39
2022-09-23T12:04:19.207Z,15.41
2022-09-23T12:06:51.186Z,15.33
2022-09-23T12:09:41.100Z,15.47
2022-09-23T12:12:18.605Z,15.40
2022-09-23T12:14:57.632Z,15.34
2022-09-23T12:17:51.311Z,15.47
2022-09-23T12:20:39.675Z,15.49
2022-09-23T12:23:19.183Z,15.41
2022-09-23T12:25:50.638Z,15.42
2022-09-23T12:28:20.593Z,15.46
2022-09-23T12:30:48.427Z,15.40
2022-09-23T12:33:21.715Z,15.35
2022-09-23T12:35:50.081Z,15.48
2022-09-23T12:38:22.438Z,15.48
2022-09-23T12:40:49.264Z,15.56
2022-09-23T12:43:18.173Z,15.50
2022-09-23T12:45:44.891Z,15.66
2022-09-23T12:48:43.916Z,15.74
2022-09-23T12:51:17.899Z,15.70
2022-09-23T12:54:15.213Z,15.54
2022-09-23T12:56:59.150Z,15.70
2022-09-23T12:59:27.696Z,15.60
2022-09-23T13:01:55.047Z,15.47
2022-09-23T13:04:43.166Z,15.59
2022-09-23T13:07:16.035Z,15.53
2022-09-23T13:09:48.184Z,15.52
2022-09-23T13:12:19.491Z,15.58
2022-09-23T13:14:48.237Z,15.63
2022-09-23T13:17:25.737Z,15.64
2022-09-23T13:20:02.636Z,15.58
2022-09-23T13:23:03.525Z,15.72
2022-09-23T13:25:32.877Z,15.82
2022-09-23T13:28:02.030Z,15.83
2022-09-23T13:30:28.655Z,15.83
2022-09-23T13:33:05.081Z,15.76
2022-09-23T13:35:35.774Z,15.76
2022-09-23T13:38:11.241Z,15.85
2022-09-23T13:40:39.425Z,15.86
2022-09-23T13:43:12.241Z,15.92
2022-09-23T13:45:41.615Z,15.98
2022-09-23T13:48:12.294Z,15.92
2022-09-23T13:50:39.767Z,15.99
2022-09-23T13:53:11.300Z,15.96
2022-09-23T13:55:39.321Z,15.84
2022-09-23T13:58:15.019Z,15.71
2022-09-23T14:00:41.560Z,15.66
2022-09-23T14:03:23.064Z,15.75
2022-09-23T14:05:50.768Z,15.69
2022-09-23T14:08:18.943Z,15.72
2022-09-23T14:10:46.561Z,15.81
2022-09-23T14:13:21.337Z,15.74
2022-09-23T14:15:54.160Z,15.82
2022-09-23T14:18:30.613Z,15.95
2022-09-23T14:20:57.103Z,15.90
2022-09-23T14:23:24.892Z,15.96
2022-09-23T14:25:53.337Z,16.10
2022-09-23T14:28:21.765Z,16.01
2022-09-23T14:30:50.699Z,15.92
2022-09-23T14:33:18.014Z,15.85
2022-09-23T14:35:47.217Z,15.91
2022-09-23T14:38:21.844Z,15.85
2022-09-23T14:40:54.339Z,15.81
2022-09-23T14:43:24.483Z,15.90
2022-09-23T14:45:53.296Z,15.89
2022-09-23T14:48:24.263Z,15.76
2022-09-23T14:50:54.569Z,15.80
2022-09-23T14:53:39.493Z,15.90
2022-09-23T14:56:25.367Z,15.88
2022-09-23T14:58:53.966Z,15.88
2022-09-23T15:01:26.504Z,15.84
2022-09-23T15:03:53.170Z,15.80
2022-09-23T15:06:22.043Z,15.76
2022-09-23T15:08:49.259Z,15.74
2022-09-23T15:11:15.761Z,15.69
2022-09-23T15:13:48.661Z,15.73
2022-09-23T15:16:16.263Z,15.62
2022-09-23T15:18:45.497Z,15.47
2022-09-23T15:21:15.723Z,15.55
2022-09-23T15:23:45.098Z,15.51
2022-09-23T15:26:14.196Z,15.47
2022-09-23T15:28:41.006Z,15.46
2022-09-23T15:31:11.234Z,15.38
2022-09-23T15:33:37.874Z,15.44
2022-09-23T15:36:04.620Z,15.42
2022-09-23T15:38:31.271Z,15.39
2022-09-23T15:40:57.881Z,15.45
2022-09-23T15:43:25.538Z,15.29
2022-09-23T15:45:54.563Z,15.34
2022-09-23T15:48:25.415Z,15.23
2022-09-23T15:50:53.444Z,15.28
2022-09-23T15:53:22.352Z,15.22
2022-09-23T15:55:49.813Z,15.30
2022-09-23T15:58:16.350Z,15.26
2022-09-23T16:00:43.127Z,15.24
2022-09-23T16:03:13.348Z,15.20
2022-09-23T16:05:44.074Z,15.22
2022-09-23T16:08:10.676Z,15.19
2022-09-23T16:10:37.797Z,15.02
2022-09-23T16:13:07.003Z,15.01
2022-09-23T16:15:34.029Z,14.85
2022-09-23T16:18:01.161Z,14.75
2022-09-23T16:20:29.609Z,14.57
2022-09-23T16:23:00.861Z,14.49
2022-09-23T16:25:29.683Z,14.28
2022-09-23T16:27:56.795Z,14.10
2022-09-23T16:30:23.648Z,14.01
2022-09-23T16:32:50.188Z,13.84
2022-09-23T16:35:16.762Z,13.48
2022-09-23T16:37:43.330Z,13.36
2022-09-23T16:40:11.387Z,13.04
2022-09-23T16:42:37.922Z,12.59
2022-09-23T16:45:05.385Z,12.50
2022-09-23T16:47:31.926Z,12.42
2022-09-23T16:49:58.475Z,12.39
2022-09-23T16:52:25.064Z,12.32
2022-09-23T16:54:51.656Z,12.04
2022-09-23T16:57:19.583Z,11.96
2022-09-23T16:59:46.128Z,11.87
2022-09-23T17:02:12.772Z,11.77
2022-09-23T17:04:39.427Z,11.57
2022-09-23T17:07:06.039Z,11.39
2022-09-23T17:09:32.606Z,11.32
2022-09-23T17:12:09.099Z,11.12
2022-09-23T17:14:37.398Z,10.95
2022-09-23T17:17:04.170Z,10.84
2022-09-23T17:19:30.913Z,10.73
2022-09-23T17:21:57.483Z,10.51
2022-09-23T17:24:24.070Z,10.38
2022-09-23T17:26:53.107Z,10.27
2022-09-23T17:29:20.175Z,10.18
2022-09-23T17:34:17.262Z,9.90
2022-09-23T17:36:43.936Z,9.74
2022-09-23T17:39:10.937Z,9.59
2022-09-23T17:41:37.433Z,9.55
2022-09-23T17:44:03.966Z,9.55
2022-09-23T17:46:30.879Z,9.49
2022-09-23T17:48:57.792Z,9.30
2022-09-23T17:51:25.773Z,9.00
2022-09-23T17:53:52.439Z,8.95
2022-09-23T17:56:20.920Z,8.96
2022-09-23T17:58:48.954Z,8.91
2022-09-23T18:01:18.038Z,8.80
2022-09-23T18:03:44.769Z,8.74
2022-09-23T18:06:13.000Z,8.67
2022-09-23T18:08:42.681Z,8.62
2022-09-23T18:11:14.261Z,8.54
2022-09-23T18:13:40.830Z,8.50
2022-09-23T18:16:07.719Z,8.53
2022-09-23T18:18:34.222Z,8.55
2022-09-23T18:21:00.991Z,8.59
2022-09-23T18:23:27.506Z,8.55
2022-09-23T18:25:55.981Z,8.53
2022-09-23T18:28:22.517Z,8.49
2022-09-23T18:30:53.165Z,8.46
2022-09-23T18:33:19.758Z,8.45
2022-09-23T18:35:46.273Z,8.44
2022-09-23T18:38:12.777Z,8.36
2022-09-23T18:40:39.305Z,8.39
2022-09-23T18:43:07.137Z,8.36
2022-09-23T18:45:33.723Z,8.25
2022-09-23T18:48:00.378Z,8.23
2022-09-23T18:50:26.930Z,8.13
2022-09-23T18:52:53.417Z,8.09
2022-09-23T18:55:19.889Z,8.03
2022-09-23T18:57:46.445Z,8.05
2022-09-23T19:00:14.670Z,7.92
2022-09-23T19:02:41.163Z,7.81
2022-09-23T19:05:08.185Z,7.65
2022-09-23T19:07:34.685Z,7.50
2022-09-23T19:10:01.198Z,7.53
2022-09-23T19:12:27.696Z,7.59
2022-09-23T19:14:54.177Z,7.47
2022-09-23T19:17:21.996Z,7.43
2022-09-23T19:19:48.485Z,7.43
2022-09-23T19:22:14.979Z,7.43
2022-09-23T19:24:41.465Z,7.42
2022-09-23T19:27:07.950Z,7.35
2022-09-23T19:29:34.455Z,7.24
2022-09-23T19:32:01.464Z,7.13
2022-09-23T19:34:29.418Z,7.12
2022-09-23T19:36:57.233Z,7.16
2022-09-23T19:39:25.510Z,7.17
2022-09-23T19:41:53.301Z,7.16
2022-09-23T19:44:19.836Z,7.17
2022-09-23T19:46:46.667Z,7.09
2022-09-23T19:49:13.592Z,7.07
2022-09-23T19:51:41.710Z,7.09
2022-09-23T19:54:08.687Z,7.13
2022-09-23T19:56:36.128Z,7.17
2022-09-23T19:59:03.177Z,7.12
2022-09-23T20:01:30.893Z,7.05
2022-09-23T20:03:57.696Z,6.97
2022-09-23T20:06:24.214Z,6.93
2022-09-23T20:08:52.061Z,6.86
2022-09-23T20:11:23.699Z,6.86
2022-09-23T20:13:55.868Z,6.79
2022-09-23T20:16:22.374Z,6.91
2022-09-23T20:18:52.016Z,6.91
2022-09-23T20:21:18.507Z,6.92
2022-09-23T20:23:45.035Z,6.96
2022-09-23T20:26:12.890Z,7.02
2022-09-23T20:28:39.391Z,7.04
2022-09-23T20:31:05.916Z,6.96
2022-09-23T20:33:32.454Z,6.92
2022-09-23T20:35:58.960Z,6.85
2022-09-23T20:38:25.435Z,6.79
2022-09-23T20:40:54.791Z,6.81
2022-09-23T20:43:23.050Z,6.82
2022-09-23T20:45:50.070Z,6.74
2022-09-23T20:48:16.602Z,6.89
2022-09-23T20:50:43.118Z,6.89
2022-09-23T20:53:09.597Z,6.94
2022-09-23T20:55:36.107Z,6.87
2022-09-23T20:58:02.587Z,6.84
2022-09-23T21:00:30.509Z,6.82
2022-09-23T21:02:57.021Z,6.83
2022-09-23T21:05:23.660Z,6.88
2022-09-23T21:07:50.149Z,6.85
2022-09-23T21:10:16.641Z,6.82
2022-09-23T21:12:43.118Z,6.83
2022-09-23T21:15:10.273Z,6.82
2022-09-23T21:17:38.086Z,6.86
2022-09-23T21:20:05.482Z,6.95
2022-09-23T21:22:31.960Z,6.95
2022-09-23T21:27:44.884Z,6.86
2022-09-23T21:30:12.244Z,6.86
2022-09-23T21:32:40.094Z,6.84
2022-09-23T21:35:07.035Z,6.88
2022-09-23T21:37:33.504Z,6.86
2022-09-23T21:40:00.280Z,6.86
2022-09-23T21:42:26.782Z,6.80
2022-09-23T21:44:53.286Z,6.75
2022-09-23T21:47:19.793Z,6.73
2022-09-23T21:49:50.756Z,6.81
2022-09-23T21:52:17.576Z,6.87
2022-09-23T21:54:44.100Z,6.84
2022-09-23T21:57:10.581Z,6.85
2022-09-23T21:59:37.089Z,6.84
2022-09-23T22:02:03.585Z,6.86
2022-09-23T22:04:30.176Z,6.89
2022-09-23T22:06:58.275Z,6.83
2022-09-23T22:09:24.816Z,6.81
2022-09-23T22:11:51.358Z,6.77
2022-09-23T22:14:19.437Z,6.78
2022-09-23T22:16:45.982Z,6.84
2022-09-23T22:19:13.504Z,6.89
2022-09-23T22:21:41.581Z,6.94
2022-09-23T22:24:11.336Z,6.89
2022-09-23T22:26:39.906Z,6.86
2022-09-23T22:29:08.470Z,6.79
2022-09-23T22:31:35.185Z,6.74
2022-09-23T22:34:01.748Z,6.75
2022-09-23T22:36:28.249Z,6.79
2022-09-23T22:38:58.410Z,6.72
2022-09-23T22:41:27.085Z,6.74
2022-09-23T22:43:53.583Z,6.70
2022-09-23T22:46:21.335Z,6.65
2022-09-23T22:48:48.757Z,6.67
2022-09-23T22:51:15.250Z,6.70
2022-09-23T22:53:41.718Z,6.67
2022-09-23T22:56:08.274Z,6.73
2022-09-23T22:58:36.147Z,6.74
2022-09-23T23:01:02.712Z,6.78
2022-09-23T23:03:29.248Z,6.76
2022-09-23T23:06:00.182Z,6.70
2022-09-23T23:08:26.998Z,6.68
2022-09-23T23:10:53.601Z,6.60
2022-09-23T23:13:20.148Z,6.62
2022-09-23T23:15:48.259Z,6.60
2022-09-23T23:18:15.214Z,6.65
2022-09-23T23:20:41.728Z,6.66
2022-09-23T23:23:08.246Z,6.70
2022-09-23T23:25:34.738Z,6.68
2022-09-23T23:28:01.567Z,6.63
2022-09-23T23:30:28.092Z,6.69
2022-09-23T23:32:55.928Z,6.72
2022-09-23T23:35:22.448Z,6.68
2022-09-23T23:37:48.955Z,6.66
2022-09-23T23:40:15.672Z,6.64
2022-09-23T23:42:42.192Z,6.66
2022-09-23T23:45:09.344Z,6.65
2022-09-23T23:47:35.820Z,6.64
2022-09-23T23:50:04.009Z,6.66
2022-09-23T23:52:30.490Z,6.71
2022-09-23T23:54:56.982Z,6.63
2022-09-23T23:57:23.502Z,6.61
2022-09-23T23:59:50.020Z,6.64
